sensor_id;sensor_type;location;lat;lon;timestamp;temperature;humidity
19868;DHT22;10096;51.112;6.776;2023-08-17T00:01:32;19.60;99.90
19868;DHT22;10096;51.112;6.776;2023-08-17T00:04:10;19.50;99.90
19868;DHT22;10096;51.112;6.776;2023-08-17T00:06:53;19.50;99.90
19868;DHT22;10096;51.112;6.776;2023-08-17T00:09:49;19.40;99.90
19868;DHT22;10096;51.112;6.776;2023-08-17T00:12:16;19.60;99.90
19868;DHT22;10096;51.112;6.776;2023-08-17T00:14:59;19.20;99.90
19868;DHT22;10096;51.112;6.776;2023-08-17T00:17:29;19.30;1.00
19868;DHT22;10096;51.112;6.776;2023-08-17T00:22:43;19.40;1.00
19868;DHT22;10096;51.112;6.776;2023-08-17T00:25:20;19.40;1.00
19868;DHT22;10096;51.112;6.776;2023-08-17T00:28:00;19.40;1.00
19868;DHT22;10096;51.112;6.776;2023-08-17T00:30:30;19.50;1.00
19868;DHT22;10096;51.112;6.776;2023-08-17T00:33:05;19.30;1.00
19868;DHT22;10096;51.112;6.776;2023-08-17T00:35:42;19.40;1.00
19868;DHT22;10096;51.112;6.776;2023-08-17T00:38:27;19.30;1.00
19868;DHT22;10096;51.112;6.776;2023-08-17T00:41:01;19.30;1.00
19868;DHT22;10096;51.112;6.776;2023-08-17T00:43:32;19.40;1.00
19868;DHT22;10096;51.112;6.776;2023-08-17T00:46:05;19.20;99.90
19868;DHT22;10096;51.112;6.776;2023-08-17T00:48:42;19.20;99.90
19868;DHT22;10096;51.112;6.776;2023-08-17T00:51:19;19.30;99.90
19868;DHT22;10096;51.112;6.776;2023-08-17T00:53:56;19.20;99.90
19868;DHT22;10096;51.112;6.776;2023-08-17T00:56:36;19.10;99.90
19868;DHT22;10096;51.112;6.776;2023-08-17T00:59:05;19.10;99.90
19868;DHT22;10096;51.112;6.776;2023-08-17T01:04:17;19.10;99.90
19868;DHT22;10096;51.112;6.776;2023-08-17T01:06:44;19.10;99.90
19868;DHT22;10096;51.112;6.776;2023-08-17T01:09:12;19.30;99.90
19868;DHT22;10096;51.112;6.776;2023-08-17T01:11:49;19.30;99.90
19868;DHT22;10096;51.112;6.776;2023-08-17T01:14:24;19.20;99.90
19868;DHT22;10096;51.112;6.776;2023-08-17T01:17:00;19.30;99.90
19868;DHT22;10096;51.112;6.776;2023-08-17T01:19:39;19.30;99.90
19868;DHT22;10096;51.112;6.776;2023-08-17T01:22:11;19.10;99.90
19868;DHT22;10096;51.112;6.776;2023-08-17T01:24:43;19.30;99.90
19868;DHT22;10096;51.112;6.776;2023-08-17T01:27:10;19.30;95.30
19868;DHT22;10096;51.112;6.776;2023-08-17T01:29:37;19.20;60.40
19868;DHT22;10096;51.112;6.776;2023-08-17T01:32:16;19.30;99.90
19868;DHT22;10096;51.112;6.776;2023-08-17T01:34:54;19.40;83.80
19868;DHT22;10096;51.112;6.776;2023-08-17T01:37:28;19.30;19.00
19868;DHT22;10096;51.112;6.776;2023-08-17T01:40:00;19.20;1.00
19868;DHT22;10096;51.112;6.776;2023-08-17T01:42:33;19.30;20.10
19868;DHT22;10096;51.112;6.776;2023-08-17T01:45:01;19.30;1.00
19868;DHT22;10096;51.112;6.776;2023-08-17T01:47:30;19.30;1.00
19868;DHT22;10096;51.112;6.776;2023-08-17T01:49:59;19.30;1.00
19868;DHT22;10096;51.112;6.776;2023-08-17T01:52:32;19.30;1.00
19868;DHT22;10096;51.112;6.776;2023-08-17T01:55:02;19.30;1.00
19868;DHT22;10096;51.112;6.776;2023-08-17T01:57:29;19.30;1.00
19868;DHT22;10096;51.112;6.776;2023-08-17T01:59:56;19.30;1.00
19868;DHT22;10096;51.112;6.776;2023-08-17T02:02:25;19.30;1.00
19868;DHT22;10096;51.112;6.776;2023-08-17T02:04:53;19.40;1.00
19868;DHT22;10096;51.112;6.776;2023-08-17T02:07:20;19.30;1.00
19868;DHT22;10096;51.112;6.776;2023-08-17T02:09:47;19.40;1.00
19868;DHT22;10096;51.112;6.776;2023-08-17T02:12:15;19.50;1.00
19868;DHT22;10096;51.112;6.776;2023-08-17T02:14:42;19.30;1.00
19868;DHT22;10096;51.112;6.776;2023-08-17T02:17:09;19.50;1.00
19868;DHT22;10096;51.112;6.776;2023-08-17T02:19:36;19.50;1.00
19868;DHT22;10096;51.112;6.776;2023-08-17T02:22:03;19.60;1.00
19868;DHT22;10096;51.112;6.776;2023-08-17T02:24:30;19.60;1.00
19868;DHT22;10096;51.112;6.776;2023-08-17T02:26:57;19.70;1.00
19868;DHT22;10096;51.112;6.776;2023-08-17T02:29:25;19.70;1.00
19868;DHT22;10096;51.112;6.776;2023-08-17T02:31:52;19.80;1.00
19868;DHT22;10096;51.112;6.776;2023-08-17T02:34:19;19.90;1.00
19868;DHT22;10096;51.112;6.776;2023-08-17T02:36:47;19.90;99.90
19868;DHT22;10096;51.112;6.776;2023-08-17T02:39:20;19.90;99.90
19868;DHT22;10096;51.112;6.776;2023-08-17T02:41:47;20.00;99.90
19868;DHT22;10096;51.112;6.776;2023-08-17T02:44:15;19.90;99.90
19868;DHT22;10096;51.112;6.776;2023-08-17T02:46:44;19.90;99.90
19868;DHT22;10096;51.112;6.776;2023-08-17T02:49:11;19.90;99.90
19868;DHT22;10096;51.112;6.776;2023-08-17T02:51:38;19.90;99.90
19868;DHT22;10096;51.112;6.776;2023-08-17T02:54:07;20.00;99.90
19868;DHT22;10096;51.112;6.776;2023-08-17T02:56:34;20.10;99.90
19868;DHT22;10096;51.112;6.776;2023-08-17T02:59:01;20.00;99.90
19868;DHT22;10096;51.112;6.776;2023-08-17T03:01:27;20.20;99.90
19868;DHT22;10096;51.112;6.776;2023-08-17T03:03:57;20.10;99.90
19868;DHT22;10096;51.112;6.776;2023-08-17T03:06:24;20.10;99.90
19868;DHT22;10096;51.112;6.776;2023-08-17T03:08:51;20.00;99.90
19868;DHT22;10096;51.112;6.776;2023-08-17T03:11:20;19.80;99.90
19868;DHT22;10096;51.112;6.776;2023-08-17T03:13:47;19.70;99.90
19868;DHT22;10096;51.112;6.776;2023-08-17T03:16:14;19.70;99.90
19868;DHT22;10096;51.112;6.776;2023-08-17T03:18:41;19.80;99.90
19868;DHT22;10096;51.112;6.776;2023-08-17T03:21:10;19.60;99.90
19868;DHT22;10096;51.112;6.776;2023-08-17T03:23:37;19.50;99.90
19868;DHT22;10096;51.112;6.776;2023-08-17T03:26:04;19.50;1.00
19868;DHT22;10096;51.112;6.776;2023-08-17T03:28:31;19.50;1.00
19868;DHT22;10096;51.112;6.776;2023-08-17T03:30:58;19.50;1.00
19868;DHT22;10096;51.112;6.776;2023-08-17T03:33:25;19.60;1.00
19868;DHT22;10096;51.112;6.776;2023-08-17T03:35:52;19.60;1.00
19868;DHT22;10096;51.112;6.776;2023-08-17T03:38:20;19.50;1.00
19868;DHT22;10096;51.112;6.776;2023-08-17T03:40:47;19.60;1.00
19868;DHT22;10096;51.112;6.776;2023-08-17T03:43:14;19.30;1.00
19868;DHT22;10096;51.112;6.776;2023-08-17T03:45:41;19.30;1.00
19868;DHT22;10096;51.112;6.776;2023-08-17T03:48:08;19.20;1.00
19868;DHT22;10096;51.112;6.776;2023-08-17T03:50:36;19.10;1.00
19868;DHT22;10096;51.112;6.776;2023-08-17T03:53:06;19.10;1.00
19868;DHT22;10096;51.112;6.776;2023-08-17T03:55:36;19.00;1.00
19868;DHT22;10096;51.112;6.776;2023-08-17T03:58:03;19.10;1.00
19868;DHT22;10096;51.112;6.776;2023-08-17T04:00:30;19.00;1.00
19868;DHT22;10096;51.112;6.776;2023-08-17T04:02:57;19.00;1.00
19868;DHT22;10096;51.112;6.776;2023-08-17T04:05:24;18.90;1.00
19868;DHT22;10096;51.112;6.776;2023-08-17T04:07:51;18.90;1.00
19868;DHT22;10096;51.112;6.776;2023-08-17T04:10:18;18.90;1.00
19868;DHT22;10096;51.112;6.776;2023-08-17T04:12:46;18.90;50.30
19868;DHT22;10096;51.112;6.776;2023-08-17T04:15:13;18.90;16.40
19868;DHT22;10096;51.112;6.776;2023-08-17T04:17:41;18.80;8.30
19868;DHT22;10096;51.112;6.776;2023-08-17T04:20:09;18.80;1.00
19868;DHT22;10096;51.112;6.776;2023-08-17T04:22:37;18.80;6.30
19868;DHT22;10096;51.112;6.776;2023-08-17T04:25:04;19.00;19.70
19868;DHT22;10096;51.112;6.776;2023-08-17T04:27:32;18.70;38.70
19868;DHT22;10096;51.112;6.776;2023-08-17T04:30:00;18.70;15.50
19868;DHT22;10096;51.112;6.776;2023-08-17T04:32:27;19.00;1.00
19868;DHT22;10096;51.112;6.776;2023-08-17T04:34:54;18.80;1.00
19868;DHT22;10096;51.112;6.776;2023-08-17T04:37:21;18.90;17.80
19868;DHT22;10096;51.112;6.776;2023-08-17T04:39:48;18.90;1.00
19868;DHT22;10096;51.112;6.776;2023-08-17T04:42:16;18.80;1.00
19868;DHT22;10096;51.112;6.776;2023-08-17T04:44:45;19.00;1.00
19868;DHT22;10096;51.112;6.776;2023-08-17T04:47:14;18.90;1.00
19868;DHT22;10096;51.112;6.776;2023-08-17T04:49:40;19.00;1.00
19868;DHT22;10096;51.112;6.776;2023-08-17T04:52:07;18.80;1.00
19868;DHT22;10096;51.112;6.776;2023-08-17T04:54:34;18.90;1.00
19868;DHT22;10096;51.112;6.776;2023-08-17T04:57:02;18.90;1.00
19868;DHT22;10096;51.112;6.776;2023-08-17T04:59:30;18.90;1.00
19868;DHT22;10096;51.112;6.776;2023-08-17T05:01:56;19.00;1.00
19868;DHT22;10096;51.112;6.776;2023-08-17T05:04:25;19.00;1.00
19868;DHT22;10096;51.112;6.776;2023-08-17T05:06:52;19.00;1.00
19868;DHT22;10096;51.112;6.776;2023-08-17T05:09:19;19.00;1.00
19868;DHT22;10096;51.112;6.776;2023-08-17T05:11:46;19.10;1.00
19868;DHT22;10096;51.112;6.776;2023-08-17T05:14:13;19.20;1.00
19868;DHT22;10096;51.112;6.776;2023-08-17T05:16:40;19.10;1.00
19868;DHT22;10096;51.112;6.776;2023-08-17T05:19:07;19.20;1.00
19868;DHT22;10096;51.112;6.776;2023-08-17T05:21:35;19.00;1.00
19868;DHT22;10096;51.112;6.776;2023-08-17T05:24:03;19.10;1.00
19868;DHT22;10096;51.112;6.776;2023-08-17T05:26:30;19.10;1.00
19868;DHT22;10096;51.112;6.776;2023-08-17T05:28:57;19.10;1.00
19868;DHT22;10096;51.112;6.776;2023-08-17T05:31:24;19.10;99.90
19868;DHT22;10096;51.112;6.776;2023-08-17T05:33:51;19.20;1.00
19868;DHT22;10096;51.112;6.776;2023-08-17T05:36:18;19.30;99.90
19868;DHT22;10096;51.112;6.776;2023-08-17T05:38:51;19.30;99.90
19868;DHT22;10096;51.112;6.776;2023-08-17T05:41:18;19.40;99.90
19868;DHT22;10096;51.112;6.776;2023-08-17T05:43:45;19.40;99.90
19868;DHT22;10096;51.112;6.776;2023-08-17T05:46:11;19.50;99.90
19868;DHT22;10096;51.112;6.776;2023-08-17T05:48:38;19.50;99.90
19868;DHT22;10096;51.112;6.776;2023-08-17T05:51:06;19.50;99.90
19868;DHT22;10096;51.112;6.776;2023-08-17T05:53:33;19.50;99.90
19868;DHT22;10096;51.112;6.776;2023-08-17T05:56:02;19.50;99.90
19868;DHT22;10096;51.112;6.776;2023-08-17T05:58:29;19.50;99.90
19868;DHT22;10096;51.112;6.776;2023-08-17T06:01:04;19.60;99.90
19868;DHT22;10096;51.112;6.776;2023-08-17T06:03:31;19.70;99.90
19868;DHT22;10096;51.112;6.776;2023-08-17T06:06:01;19.60;99.90
19868;DHT22;10096;51.112;6.776;2023-08-17T06:08:35;19.80;99.90
19868;DHT22;10096;51.112;6.776;2023-08-17T06:11:04;19.80;99.90
19868;DHT22;10096;51.112;6.776;2023-08-17T06:13:31;19.80;99.90
19868;DHT22;10096;51.112;6.776;2023-08-17T06:15:58;20.20;99.90
19868;DHT22;10096;51.112;6.776;2023-08-17T06:18:24;20.00;99.90
19868;DHT22;10096;51.112;6.776;2023-08-17T06:20:51;20.20;99.90
19868;DHT22;10096;51.112;6.776;2023-08-17T06:23:19;20.40;97.70
19868;DHT22;10096;51.112;6.776;2023-08-17T06:25:46;20.30;35.70
19868;DHT22;10096;51.112;6.776;2023-08-17T06:28:14;20.40;32.60
19868;DHT22;10096;51.112;6.776;2023-08-17T06:30:41;20.50;3.10
19868;DHT22;10096;51.112;6.776;2023-08-17T06:33:08;20.40;10.10
19868;DHT22;10096;51.112;6.776;2023-08-17T06:35:35;20.30;40.00
19868;DHT22;10096;51.112;6.776;2023-08-17T06:38:01;20.40;32.60
19868;DHT22;10096;51.112;6.776;2023-08-17T06:40:28;20.40;4.80
19868;DHT22;10096;51.112;6.776;2023-08-17T06:42:55;20.50;1.00
19868;DHT22;10096;51.112;6.776;2023-08-17T06:45:23;20.70;1.00
19868;DHT22;10096;51.112;6.776;2023-08-17T06:47:52;20.80;1.00
19868;DHT22;10096;51.112;6.776;2023-08-17T06:50:19;20.70;1.00
19868;DHT22;10096;51.112;6.776;2023-08-17T06:52:45;20.70;1.00
19868;DHT22;10096;51.112;6.776;2023-08-17T06:55:14;20.70;1.00
19868;DHT22;10096;51.112;6.776;2023-08-17T06:57:42;20.50;1.00
19868;DHT22;10096;51.112;6.776;2023-08-17T07:00:12;20.70;1.00
19868;DHT22;10096;51.112;6.776;2023-08-17T07:02:42;20.60;1.00
19868;DHT22;10096;51.112;6.776;2023-08-17T07:05:08;20.70;1.00
19868;DHT22;10096;51.112;6.776;2023-08-17T07:07:42;20.60;1.00
19868;DHT22;10096;51.112;6.776;2023-08-17T07:10:11;20.70;1.00
19868;DHT22;10096;51.112;6.776;2023-08-17T07:12:39;20.60;1.00
19868;DHT22;10096;51.112;6.776;2023-08-17T07:15:07;20.70;1.00
19868;DHT22;10096;51.112;6.776;2023-08-17T07:17:34;20.70;1.00
19868;DHT22;10096;51.112;6.776;2023-08-17T07:20:07;20.70;1.00
19868;DHT22;10096;51.112;6.776;2023-08-17T07:22:35;20.80;1.00
19868;DHT22;10096;51.112;6.776;2023-08-17T07:25:03;20.90;1.00
19868;DHT22;10096;51.112;6.776;2023-08-17T07:27:30;21.00;1.00
19868;DHT22;10096;51.112;6.776;2023-08-17T07:29:57;21.00;1.00
19868;DHT22;10096;51.112;6.776;2023-08-17T07:32:24;21.10;1.00
19868;DHT22;10096;51.112;6.776;2023-08-17T07:34:52;21.30;1.00
19868;DHT22;10096;51.112;6.776;2023-08-17T07:37:21;21.50;1.00
19868;DHT22;10096;51.112;6.776;2023-08-17T07:39:48;21.70;1.00
19868;DHT22;10096;51.112;6.776;2023-08-17T07:42:15;21.70;1.00
19868;DHT22;10096;51.112;6.776;2023-08-17T07:44:42;21.80;1.00
19868;DHT22;10096;51.112;6.776;2023-08-17T07:47:11;21.90;1.00
19868;DHT22;10096;51.112;6.776;2023-08-17T07:49:38;21.90;1.00
19868;DHT22;10096;51.112;6.776;2023-08-17T07:52:05;22.00;1.00
19868;DHT22;10096;51.112;6.776;2023-08-17T07:54:33;22.00;1.00
19868;DHT22;10096;51.112;6.776;2023-08-17T07:57:00;22.10;1.00
19868;DHT22;10096;51.112;6.776;2023-08-17T07:59:29;22.20;1.00
19868;DHT22;10096;51.112;6.776;2023-08-17T08:01:56;22.20;1.00
19868;DHT22;10096;51.112;6.776;2023-08-17T08:04:23;22.30;1.00
19868;DHT22;10096;51.112;6.776;2023-08-17T08:06:50;22.30;1.00
19868;DHT22;10096;51.112;6.776;2023-08-17T08:09:17;22.20;1.00
19868;DHT22;10096;51.112;6.776;2023-08-17T08:11:46;22.50;1.00
19868;DHT22;10096;51.112;6.776;2023-08-17T08:14:13;22.30;1.00
19868;DHT22;10096;51.112;6.776;2023-08-17T08:16:40;22.30;1.00
19868;DHT22;10096;51.112;6.776;2023-08-17T08:19:06;22.40;1.00
19868;DHT22;10096;51.112;6.776;2023-08-17T08:21:33;22.40;1.00
19868;DHT22;10096;51.112;6.776;2023-08-17T08:24:00;22.40;1.00
19868;DHT22;10096;51.112;6.776;2023-08-17T08:26:28;22.30;1.00
19868;DHT22;10096;51.112;6.776;2023-08-17T08:28:56;22.30;1.00
19868;DHT22;10096;51.112;6.776;2023-08-17T08:31:30;22.30;1.00
19868;DHT22;10096;51.112;6.776;2023-08-17T08:33:57;22.40;1.00
19868;DHT22;10096;51.112;6.776;2023-08-17T08:36:25;22.50;1.00
19868;DHT22;10096;51.112;6.776;2023-08-17T08:38:52;22.30;1.00
19868;DHT22;10096;51.112;6.776;2023-08-17T08:41:19;22.30;1.00
19868;DHT22;10096;51.112;6.776;2023-08-17T08:43:46;22.20;1.00
19868;DHT22;10096;51.112;6.776;2023-08-17T08:46:19;22.20;1.00
19868;DHT22;10096;51.112;6.776;2023-08-17T08:48:49;22.10;1.00
19868;DHT22;10096;51.112;6.776;2023-08-17T08:51:21;22.30;1.00
19868;DHT22;10096;51.112;6.776;2023-08-17T08:54:00;22.30;1.00
19868;DHT22;10096;51.112;6.776;2023-08-17T08:56:32;22.40;1.00
19868;DHT22;10096;51.112;6.776;2023-08-17T08:59:01;22.40;1.00
19868;DHT22;10096;51.112;6.776;2023-08-17T09:01:31;22.50;1.00
19868;DHT22;10096;51.112;6.776;2023-08-17T09:03:59;22.60;1.00
19868;DHT22;10096;51.112;6.776;2023-08-17T09:06:27;22.60;1.00
19868;DHT22;10096;51.112;6.776;2023-08-17T09:08:57;22.60;1.00
19868;DHT22;10096;51.112;6.776;2023-08-17T09:11:25;22.60;1.00
19868;DHT22;10096;51.112;6.776;2023-08-17T09:13:53;22.70;1.00
19868;DHT22;10096;51.112;6.776;2023-08-17T09:16:20;22.80;99.90
19868;DHT22;10096;51.112;6.776;2023-08-17T09:18:51;22.80;99.90
19868;DHT22;10096;51.112;6.776;2023-08-17T09:21:23;22.70;99.90
19868;DHT22;10096;51.112;6.776;2023-08-17T09:23:51;22.70;1.00
19868;DHT22;10096;51.112;6.776;2023-08-17T09:26:19;22.70;99.90
19868;DHT22;10096;51.112;6.776;2023-08-17T09:28:48;22.70;1.00
19868;DHT22;10096;51.112;6.776;2023-08-17T09:31:15;22.60;1.00
19868;DHT22;10096;51.112;6.776;2023-08-17T09:33:42;22.90;1.00
19868;DHT22;10096;51.112;6.776;2023-08-17T09:36:15;22.80;99.90
19868;DHT22;10096;51.112;6.776;2023-08-17T09:38:42;23.00;99.90
19868;DHT22;10096;51.112;6.776;2023-08-17T09:41:09;23.30;99.90
19868;DHT22;10096;51.112;6.776;2023-08-17T09:43:37;23.30;99.90
19868;DHT22;10096;51.112;6.776;2023-08-17T09:46:03;23.40;99.90
19868;DHT22;10096;51.112;6.776;2023-08-17T09:48:33;23.50;99.90
19868;DHT22;10096;51.112;6.776;2023-08-17T09:51:00;23.40;99.90
19868;DHT22;10096;51.112;6.776;2023-08-17T09:53:29;23.40;99.90
19868;DHT22;10096;51.112;6.776;2023-08-17T09:55:59;23.50;99.90
19868;DHT22;10096;51.112;6.776;2023-08-17T09:58:27;23.30;99.90
19868;DHT22;10096;51.112;6.776;2023-08-17T10:00:54;23.40;99.90
19868;DHT22;10096;51.112;6.776;2023-08-17T10:03:24;23.50;99.90
19868;DHT22;10096;51.112;6.776;2023-08-17T10:06:01;23.60;99.90
19868;DHT22;10096;51.112;6.776;2023-08-17T10:08:33;23.50;99.90
19868;DHT22;10096;51.112;6.776;2023-08-17T10:11:04;23.40;99.90
19868;DHT22;10096;51.112;6.776;2023-08-17T10:13:37;23.20;99.90
19868;DHT22;10096;51.112;6.776;2023-08-17T10:16:11;23.10;99.90
19868;DHT22;10096;51.112;6.776;2023-08-17T10:18:55;23.00;99.90
19868;DHT22;10096;51.112;6.776;2023-08-17T10:21:28;23.00;99.90
19868;DHT22;10096;51.112;6.776;2023-08-17T10:23:57;23.00;99.90
19868;DHT22;10096;51.112;6.776;2023-08-17T10:26:24;23.00;99.90
19868;DHT22;10096;51.112;6.776;2023-08-17T10:28:52;22.90;99.90
19868;DHT22;10096;51.112;6.776;2023-08-17T10:31:23;22.90;99.90
19868;DHT22;10096;51.112;6.776;2023-08-17T10:33:50;22.90;99.90
19868;DHT22;10096;51.112;6.776;2023-08-17T10:36:18;23.00;99.90
19868;DHT22;10096;51.112;6.776;2023-08-17T10:41:51;23.00;99.90
19868;DHT22;10096;51.112;6.776;2023-08-17T10:44:38;23.70;99.90
19868;DHT22;10096;51.112;6.776;2023-08-17T10:47:21;23.70;99.90
19868;DHT22;10096;51.112;6.776;2023-08-17T10:49:49;23.80;99.90
19868;DHT22;10096;51.112;6.776;2023-08-17T10:52:25;23.90;99.90
19868;DHT22;10096;51.112;6.776;2023-08-17T10:54:53;23.90;99.90
19868;DHT22;10096;51.112;6.776;2023-08-17T10:57:36;23.90;99.90
19868;DHT22;10096;51.112;6.776;2023-08-17T11:00:19;24.10;99.90
19868;DHT22;10096;51.112;6.776;2023-08-17T11:02:53;24.10;99.90
19868;DHT22;10096;51.112;6.776;2023-08-17T11:05:37;24.20;99.90
19868;DHT22;10096;51.112;6.776;2023-08-17T11:08:05;24.30;99.90
19868;DHT22;10096;51.112;6.776;2023-08-17T11:10:33;24.20;99.90
19868;DHT22;10096;51.112;6.776;2023-08-17T11:13:01;24.20;99.90
19868;DHT22;10096;51.112;6.776;2023-08-17T11:15:36;24.20;99.90
19868;DHT22;10096;51.112;6.776;2023-08-17T11:18:08;24.20;99.90
19868;DHT22;10096;51.112;6.776;2023-08-17T11:20:37;24.20;99.90
19868;DHT22;10096;51.112;6.776;2023-08-17T11:23:05;24.10;99.90
19868;DHT22;10096;51.112;6.776;2023-08-17T11:25:34;23.90;99.90
19868;DHT22;10096;51.112;6.776;2023-08-17T11:28:05;23.90;99.90
19868;DHT22;10096;51.112;6.776;2023-08-17T11:30:33;24.00;99.90
19868;DHT22;10096;51.112;6.776;2023-08-17T11:33:01;23.90;99.90
19868;DHT22;10096;51.112;6.776;2023-08-17T11:35:28;24.00;99.90
19868;DHT22;10096;51.112;6.776;2023-08-17T11:37:55;23.80;99.90
19868;DHT22;10096;51.112;6.776;2023-08-17T11:40:22;23.70;99.90
19868;DHT22;10096;51.112;6.776;2023-08-17T11:42:50;23.70;99.90
19868;DHT22;10096;51.112;6.776;2023-08-17T11:45:19;23.70;99.90
19868;DHT22;10096;51.112;6.776;2023-08-17T11:47:47;23.80;99.90
19868;DHT22;10096;51.112;6.776;2023-08-17T11:50:17;23.90;99.90
19868;DHT22;10096;51.112;6.776;2023-08-17T11:52:44;23.90;99.90
19868;DHT22;10096;51.112;6.776;2023-08-17T11:55:16;23.90;99.90
19868;DHT22;10096;51.112;6.776;2023-08-17T11:57:46;24.00;99.90
19868;DHT22;10096;51.112;6.776;2023-08-17T12:03:38;24.10;99.90
19868;DHT22;10096;51.112;6.776;2023-08-17T12:06:06;24.20;99.90
19868;DHT22;10096;51.112;6.776;2023-08-17T12:09:15;24.20;99.90
19868;DHT22;10096;51.112;6.776;2023-08-17T12:11:58;24.20;99.90
19868;DHT22;10096;51.112;6.776;2023-08-17T12:14:26;24.20;99.90
19868;DHT22;10096;51.112;6.776;2023-08-17T12:16:55;24.20;99.90
19868;DHT22;10096;51.112;6.776;2023-08-17T12:19:27;24.50;99.90
19868;DHT22;10096;51.112;6.776;2023-08-17T12:22:11;24.20;99.90
19868;DHT22;10096;51.112;6.776;2023-08-17T12:24:43;24.70;99.90
19868;DHT22;10096;51.112;6.776;2023-08-17T12:27:14;24.70;99.90
19868;DHT22;10096;51.112;6.776;2023-08-17T12:29:51;24.80;99.90
19868;DHT22;10096;51.112;6.776;2023-08-17T12:32:19;25.30;99.90
19868;DHT22;10096;51.112;6.776;2023-08-17T12:34:48;25.40;99.90
19868;DHT22;10096;51.112;6.776;2023-08-17T12:37:19;25.60;99.90
19868;DHT22;10096;51.112;6.776;2023-08-17T12:39:47;25.60;99.90
19868;DHT22;10096;51.112;6.776;2023-08-17T12:42:14;25.80;99.90
19868;DHT22;10096;51.112;6.776;2023-08-17T12:44:42;25.70;99.90
19868;DHT22;10096;51.112;6.776;2023-08-17T12:47:10;26.00;99.90
19868;DHT22;10096;51.112;6.776;2023-08-17T12:49:37;26.00;99.90
19868;DHT22;10096;51.112;6.776;2023-08-17T12:52:08;26.30;99.90
19868;DHT22;10096;51.112;6.776;2023-08-17T12:54:36;26.30;99.90
19868;DHT22;10096;51.112;6.776;2023-08-17T12:57:05;26.20;99.90
19868;DHT22;10096;51.112;6.776;2023-08-17T12:59:32;26.30;99.90
19868;DHT22;10096;51.112;6.776;2023-08-17T13:02:01;26.30;99.90
19868;DHT22;10096;51.112;6.776;2023-08-17T13:04:28;26.40;99.90
19868;DHT22;10096;51.112;6.776;2023-08-17T13:06:55;26.60;99.90
19868;DHT22;10096;51.112;6.776;2023-08-17T13:09:23;26.60;99.90
19868;DHT22;10096;51.112;6.776;2023-08-17T13:11:50;26.70;99.90
19868;DHT22;10096;51.112;6.776;2023-08-17T13:14:17;26.80;99.90
19868;DHT22;10096;51.112;6.776;2023-08-17T13:16:44;27.10;99.90
19868;DHT22;10096;51.112;6.776;2023-08-17T13:19:11;27.00;99.90
19868;DHT22;10096;51.112;6.776;2023-08-17T13:21:38;26.90;99.90
19868;DHT22;10096;51.112;6.776;2023-08-17T13:24:05;26.80;99.90
19868;DHT22;10096;51.112;6.776;2023-08-17T13:26:35;26.90;99.90
19868;DHT22;10096;51.112;6.776;2023-08-17T13:29:02;27.00;99.90
19868;DHT22;10096;51.112;6.776;2023-08-17T13:31:32;27.10;99.90
19868;DHT22;10096;51.112;6.776;2023-08-17T13:33:59;26.90;99.90
19868;DHT22;10096;51.112;6.776;2023-08-17T13:36:26;26.60;99.90
19868;DHT22;10096;51.112;6.776;2023-08-17T13:38:53;26.40;99.90
19868;DHT22;10096;51.112;6.776;2023-08-17T13:41:23;26.50;99.90
19868;DHT22;10096;51.112;6.776;2023-08-17T13:43:52;26.40;99.90
19868;DHT22;10096;51.112;6.776;2023-08-17T13:46:19;26.20;99.90
19868;DHT22;10096;51.112;6.776;2023-08-17T13:48:46;25.80;99.90
19868;DHT22;10096;51.112;6.776;2023-08-17T13:51:14;25.80;99.90
19868;DHT22;10096;51.112;6.776;2023-08-17T13:53:41;25.50;99.90
19868;DHT22;10096;51.112;6.776;2023-08-17T13:56:08;25.60;99.90
19868;DHT22;10096;51.112;6.776;2023-08-17T13:58:35;25.60;99.90
19868;DHT22;10096;51.112;6.776;2023-08-17T14:01:04;25.40;99.90
19868;DHT22;10096;51.112;6.776;2023-08-17T14:03:31;25.40;99.90
19868;DHT22;10096;51.112;6.776;2023-08-17T14:05:58;25.30;99.90
19868;DHT22;10096;51.112;6.776;2023-08-17T14:08:25;25.50;99.90
19868;DHT22;10096;51.112;6.776;2023-08-17T14:10:52;25.60;99.90
19868;DHT22;10096;51.112;6.776;2023-08-17T14:13:19;25.70;99.90
19868;DHT22;10096;51.112;6.776;2023-08-17T14:15:46;25.90;99.90
19868;DHT22;10096;51.112;6.776;2023-08-17T14:18:15;25.90;99.90
19868;DHT22;10096;51.112;6.776;2023-08-17T14:20:42;25.90;99.90
19868;DHT22;10096;51.112;6.776;2023-08-17T14:23:11;25.80;99.90
19868;DHT22;10096;51.112;6.776;2023-08-17T14:25:39;25.90;99.90
19868;DHT22;10096;51.112;6.776;2023-08-17T14:28:07;25.70;99.90
19868;DHT22;10096;51.112;6.776;2023-08-17T14:30:34;25.70;99.90
19868;DHT22;10096;51.112;6.776;2023-08-17T14:33:01;25.60;99.90
19868;DHT22;10096;51.112;6.776;2023-08-17T14:35:30;25.60;99.90
19868;DHT22;10096;51.112;6.776;2023-08-17T14:37:57;25.40;99.90
19868;DHT22;10096;51.112;6.776;2023-08-17T14:40:26;25.20;99.90
19868;DHT22;10096;51.112;6.776;2023-08-17T14:42:53;25.00;99.90
19868;DHT22;10096;51.112;6.776;2023-08-17T14:45:21;25.00;99.90
19868;DHT22;10096;51.112;6.776;2023-08-17T14:47:51;25.00;99.90
19868;DHT22;10096;51.112;6.776;2023-08-17T14:50:18;25.00;99.90
19868;DHT22;10096;51.112;6.776;2023-08-17T14:52:47;25.10;99.90
19868;DHT22;10096;51.112;6.776;2023-08-17T14:55:14;25.20;99.90
19868;DHT22;10096;51.112;6.776;2023-08-17T14:57:40;25.10;99.90
19868;DHT22;10096;51.112;6.776;2023-08-17T15:00:11;25.00;99.90
19868;DHT22;10096;51.112;6.776;2023-08-17T15:02:38;25.00;99.90
19868;DHT22;10096;51.112;6.776;2023-08-17T15:05:07;24.70;99.90
19868;DHT22;10096;51.112;6.776;2023-08-17T15:07:36;24.60;99.90
19868;DHT22;10096;51.112;6.776;2023-08-17T15:10:06;24.40;99.90
19868;DHT22;10096;51.112;6.776;2023-08-17T15:12:33;24.50;99.90
19868;DHT22;10096;51.112;6.776;2023-08-17T15:15:00;24.20;99.90
19868;DHT22;10096;51.112;6.776;2023-08-17T15:17:28;24.00;99.90
19868;DHT22;10096;51.112;6.776;2023-08-17T15:19:55;23.90;99.90
19868;DHT22;10096;51.112;6.776;2023-08-17T15:22:22;23.80;99.90
19868;DHT22;10096;51.112;6.776;2023-08-17T15:24:50;23.80;99.90
19868;DHT22;10096;51.112;6.776;2023-08-17T15:27:18;23.90;99.90
19868;DHT22;10096;51.112;6.776;2023-08-17T15:29:45;23.80;99.90
19868;DHT22;10096;51.112;6.776;2023-08-17T15:32:15;23.80;99.90
19868;DHT22;10096;51.112;6.776;2023-08-17T15:34:42;24.00;99.90
19868;DHT22;10096;51.112;6.776;2023-08-17T15:37:09;23.90;99.90
19868;DHT22;10096;51.112;6.776;2023-08-17T15:39:36;23.80;99.90
19868;DHT22;10096;51.112;6.776;2023-08-17T15:42:04;23.70;99.90
19868;DHT22;10096;51.112;6.776;2023-08-17T15:44:33;23.70;99.90
19868;DHT22;10096;51.112;6.776;2023-08-17T15:47:03;23.50;99.90
19868;DHT22;10096;51.112;6.776;2023-08-17T15:49:30;23.60;99.90
19868;DHT22;10096;51.112;6.776;2023-08-17T15:51:57;23.50;99.90
19868;DHT22;10096;51.112;6.776;2023-08-17T15:54:24;23.50;99.90
19868;DHT22;10096;51.112;6.776;2023-08-17T15:56:51;23.50;99.90
19868;DHT22;10096;51.112;6.776;2023-08-17T15:59:19;23.50;99.90
19868;DHT22;10096;51.112;6.776;2023-08-17T16:01:48;23.50;99.90